sensor_id;sensor_type;location;lat;lon;timestamp;temperature;humidity
9915;DHT22;4996;48.746;9.174;2022-09-21T00:01:27;9.60;99.90
9915;DHT22;4996;48.746;9.174;2022-09-21T00:03:55;9.60;99.90
9915;DHT22;4996;48.746;9.174;2022-09-21T00:06:22;9.60;99.90
9915;DHT22;4996;48.746;9.174;2022-09-21T00:08:48;9.50;99.90
9915;DHT22;4996;48.746;9.174;2022-09-21T00:11:19;9.50;99.90
9915;DHT22;4996;48.746;9.174;2022-09-21T00:13:46;9.50;99.90
9915;DHT22;4996;48.746;9.174;2022-09-21T00:16:13;9.50;99.90
9915;DHT22;4996;48.746;9.174;2022-09-21T00:18:39;9.50;99.90
9915;DHT22;4996;48.746;9.174;2022-09-21T00:21:10;9.50;99.90
9915;DHT22;4996;48.746;9.174;2022-09-21T00:23:36;9.40;99.90
9915;DHT22;4996;48.746;9.174;2022-09-21T00:26:10;9.40;99.90
9915;DHT22;4996;48.746;9.174;2022-09-21T00:28:36;9.30;99.90
9915;DHT22;4996;48.746;9.174;2022-09-21T00:31:04;9.30;99.90
9915;DHT22;4996;48.746;9.174;2022-09-21T00:33:29;9.30;99.90
9915;DHT22;4996;48.746;9.174;2022-09-21T00:35:55;9.40;99.90
9915;DHT22;4996;48.746;9.174;2022-09-21T00:38:25;9.30;99.90
9915;DHT22;4996;48.746;9.174;2022-09-21T00:40:51;9.20;99.90
9915;DHT22;4996;48.746;9.174;2022-09-21T00:43:16;9.10;99.90
9915;DHT22;4996;48.746;9.174;2022-09-21T00:45:43;9.10;99.90
9915;DHT22;4996;48.746;9.174;2022-09-21T00:48:11;9.00;99.90
9915;DHT22;4996;48.746;9.174;2022-09-21T00:50:40;9.00;99.90
9915;DHT22;4996;48.746;9.174;2022-09-21T00:53:07;9.00;99.90
9915;DHT22;4996;48.746;9.174;2022-09-21T00:55:40;8.90;99.90
9915;DHT22;4996;48.746;9.174;2022-09-21T00:58:09;8.90;99.90
9915;DHT22;4996;48.746;9.174;2022-09-21T01:00:37;8.90;99.90
9915;DHT22;4996;48.746;9.174;2022-09-21T01:03:05;8.90;99.90
9915;DHT22;4996;48.746;9.174;2022-09-21T01:05:31;8.90;99.90
9915;DHT22;4996;48.746;9.174;2022-09-21T01:07:58;9.00;99.90
9915;DHT22;4996;48.746;9.174;2022-09-21T01:10:26;9.00;99.90
9915;DHT22;4996;48.746;9.174;2022-09-21T01:15:42;8.90;99.90
9915;DHT22;4996;48.746;9.174;2022-09-21T01:21:21;8.80;99.90
9915;DHT22;4996;48.746;9.174;2022-09-21T01:29:50;8.80;99.90
9915;DHT22;4996;48.746;9.174;2022-09-21T01:32:40;8.80;99.90
9915;DHT22;4996;48.746;9.174;2022-09-21T01:35:13;8.70;99.90
9915;DHT22;4996;48.746;9.174;2022-09-21T01:37:46;8.70;99.90
9915;DHT22;4996;48.746;9.174;2022-09-21T01:40:20;8.70;99.90
9915;DHT22;4996;48.746;9.174;2022-09-21T01:42:48;8.70;99.90
9915;DHT22;4996;48.746;9.174;2022-09-21T01:45:16;8.70;99.90
9915;DHT22;4996;48.746;9.174;2022-09-21T01:47:42;8.70;99.90
9915;DHT22;4996;48.746;9.174;2022-09-21T01:50:11;8.80;99.90
9915;DHT22;4996;48.746;9.174;2022-09-21T01:52:51;8.80;99.90
9915;DHT22;4996;48.746;9.174;2022-09-21T01:55:24;8.80;99.90
9915;DHT22;4996;48.746;9.174;2022-09-21T01:57:58;8.70;99.90
9915;DHT22;4996;48.746;9.174;2022-09-21T02:00:25;8.70;99.90
9915;DHT22;4996;48.746;9.174;2022-09-21T02:03:03;8.60;99.90
9915;DHT22;4996;48.746;9.174;2022-09-21T02:05:29;8.60;99.90
9915;DHT22;4996;48.746;9.174;2022-09-21T02:07:56;8.50;99.90
9915;DHT22;4996;48.746;9.174;2022-09-21T02:10:39;8.60;99.90
9915;DHT22;4996;48.746;9.174;2022-09-21T02:13:07;8.70;99.90
9915;DHT22;4996;48.746;9.174;2022-09-21T02:16:09;8.70;99.90
9915;DHT22;4996;48.746;9.174;2022-09-21T02:19:13;8.70;99.90
9915;DHT22;4996;48.746;9.174;2022-09-21T02:26:54;8.60;99.90
9915;DHT22;4996;48.746;9.174;2022-09-21T02:35:53;8.60;99.90
9915;DHT22;4996;48.746;9.174;2022-09-21T02:38:26;8.50;99.90
9915;DHT22;4996;48.746;9.174;2022-09-21T02:43:40;8.50;99.90
9915;DHT22;4996;48.746;9.174;2022-09-21T02:46:14;8.40;99.90
9915;DHT22;4996;48.746;9.174;2022-09-21T02:48:48;8.40;99.90
9915;DHT22;4996;48.746;9.174;2022-09-21T02:51:24;8.50;99.90
9915;DHT22;4996;48.746;9.174;2022-09-21T02:53:54;8.40;99.90
9915;DHT22;4996;48.746;9.174;2022-09-21T02:56:21;8.40;99.90
9915;DHT22;4996;48.746;9.174;2022-09-21T02:58:49;8.30;99.90
9915;DHT22;4996;48.746;9.174;2022-09-21T03:01:19;8.30;99.90
9915;DHT22;4996;48.746;9.174;2022-09-21T03:03:46;8.40;99.90
9915;DHT22;4996;48.746;9.174;2022-09-21T03:06:11;8.40;99.90
9915;DHT22;4996;48.746;9.174;2022-09-21T03:08:37;8.40;99.90
9915;DHT22;4996;48.746;9.174;2022-09-21T03:11:03;8.40;99.90
9915;DHT22;4996;48.746;9.174;2022-09-21T03:13:28;8.40;99.90
9915;DHT22;4996;48.746;9.174;2022-09-21T03:16:03;8.50;99.90
9915;DHT22;4996;48.746;9.174;2022-09-21T03:18:29;8.40;99.90
9915;DHT22;4996;48.746;9.174;2022-09-21T03:20:55;8.40;99.90
9915;DHT22;4996;48.746;9.174;2022-09-21T03:23:20;8.30;99.90
9915;DHT22;4996;48.746;9.174;2022-09-21T03:25:46;8.40;99.90
9915;DHT22;4996;48.746;9.174;2022-09-21T03:28:13;8.40;99.90
9915;DHT22;4996;48.746;9.174;2022-09-21T03:30:39;8.40;99.90
9915;DHT22;4996;48.746;9.174;2022-09-21T03:33:05;8.30;99.90
9915;DHT22;4996;48.746;9.174;2022-09-21T03:35:31;8.30;99.90
9915;DHT22;4996;48.746;9.174;2022-09-21T03:37:59;8.30;99.90
9915;DHT22;4996;48.746;9.174;2022-09-21T03:40:25;8.30;99.90
9915;DHT22;4996;48.746;9.174;2022-09-21T03:42:52;8.30;99.90
9915;DHT22;4996;48.746;9.174;2022-09-21T03:45:17;8.20;99.90
9915;DHT22;4996;48.746;9.174;2022-09-21T03:47:43;8.20;99.90
9915;DHT22;4996;48.746;9.174;2022-09-21T03:50:09;8.20;99.90
9915;DHT22;4996;48.746;9.174;2022-09-21T03:52:35;8.20;99.90
9915;DHT22;4996;48.746;9.174;2022-09-21T03:55:02;8.20;99.90
9915;DHT22;4996;48.746;9.174;2022-09-21T03:57:31;8.20;99.90
9915;DHT22;4996;48.746;9.174;2022-09-21T03:59:57;8.20;99.90
9915;DHT22;4996;48.746;9.174;2022-09-21T04:02:22;8.10;99.90
9915;DHT22;4996;48.746;9.174;2022-09-21T04:04:48;8.10;99.90
9915;DHT22;4996;48.746;9.174;2022-09-21T04:07:13;8.20;99.90
9915;DHT22;4996;48.746;9.174;2022-09-21T04:09:39;8.10;99.90
9915;DHT22;4996;48.746;9.174;2022-09-21T04:12:06;8.10;99.90
9915;DHT22;4996;48.746;9.174;2022-09-21T04:14:32;8.10;99.90
9915;DHT22;4996;48.746;9.174;2022-09-21T04:16:58;8.10;99.90
9915;DHT22;4996;48.746;9.174;2022-09-21T04:19:24;8.10;99.90
9915;DHT22;4996;48.746;9.174;2022-09-21T04:21:49;8.10;99.90
9915;DHT22;4996;48.746;9.174;2022-09-21T04:24:19;8.10;99.90
9915;DHT22;4996;48.746;9.174;2022-09-21T04:26:44;8.10;99.90
9915;DHT22;4996;48.746;9.174;2022-09-21T04:29:11;8.00;99.90
9915;DHT22;4996;48.746;9.174;2022-09-21T04:31:37;7.90;99.90
9915;DHT22;4996;48.746;9.174;2022-09-21T04:34:03;7.80;99.90
9915;DHT22;4996;48.746;9.174;2022-09-21T04:36:29;7.80;99.90
9915;DHT22;4996;48.746;9.174;2022-09-21T04:38:57;7.80;99.90
9915;DHT22;4996;48.746;9.174;2022-09-21T04:41:24;7.80;99.90
9915;DHT22;4996;48.746;9.174;2022-09-21T04:43:50;7.80;99.90
9915;DHT22;4996;48.746;9.174;2022-09-21T04:46:17;7.90;99.90
9915;DHT22;4996;48.746;9.174;2022-09-21T04:48:44;7.90;99.90
9915;DHT22;4996;48.746;9.174;2022-09-21T04:51:10;7.90;99.90
9915;DHT22;4996;48.746;9.174;2022-09-21T04:53:38;7.90;99.90
9915;DHT22;4996;48.746;9.174;2022-09-21T04:56:04;7.80;99.90
9915;DHT22;4996;48.746;9.174;2022-09-21T04:58:31;7.80;99.90
9915;DHT22;4996;48.746;9.174;2022-09-21T05:00:57;7.70;99.90
9915;DHT22;4996;48.746;9.174;2022-09-21T05:03:23;7.70;99.90
9915;DHT22;4996;48.746;9.174;2022-09-21T05:05:51;7.70;99.90
9915;DHT22;4996;48.746;9.174;2022-09-21T05:08:18;7.70;99.90
9915;DHT22;4996;48.746;9.174;2022-09-21T05:11:02;7.80;99.90
9915;DHT22;4996;48.746;9.174;2022-09-21T05:13:28;7.80;99.90
9915;DHT22;4996;48.746;9.174;2022-09-21T05:15:53;7.80;99.90
9915;DHT22;4996;48.746;9.174;2022-09-21T05:18:18;7.80;99.90
9915;DHT22;4996;48.746;9.174;2022-09-21T05:20:44;7.80;99.90
9915;DHT22;4996;48.746;9.174;2022-09-21T05:23:09;7.70;99.90
9915;DHT22;4996;48.746;9.174;2022-09-21T05:25:35;7.80;99.90
9915;DHT22;4996;48.746;9.174;2022-09-21T05:28:01;7.80;99.90
9915;DHT22;4996;48.746;9.174;2022-09-21T05:30:26;7.80;99.90
9915;DHT22;4996;48.746;9.174;2022-09-21T05:33:00;7.70;99.90
9915;DHT22;4996;48.746;9.174;2022-09-21T05:35:44;7.70;99.90
9915;DHT22;4996;48.746;9.174;2022-09-21T05:38:16;7.70;99.90
9915;DHT22;4996;48.746;9.174;2022-09-21T05:40:43;7.70;99.90
9915;DHT22;4996;48.746;9.174;2022-09-21T05:43:10;7.80;99.90
9915;DHT22;4996;48.746;9.174;2022-09-21T05:45:37;7.80;99.90
9915;DHT22;4996;48.746;9.174;2022-09-21T05:51:05;7.80;99.90
9915;DHT22;4996;48.746;9.174;2022-09-21T05:59:23;8.00;99.90
9915;DHT22;4996;48.746;9.174;2022-09-21T06:04:36;8.10;99.90
9915;DHT22;4996;48.746;9.174;2022-09-21T06:07:02;8.20;99.90
9915;DHT22;4996;48.746;9.174;2022-09-21T06:09:27;8.30;99.90
9915;DHT22;4996;48.746;9.174;2022-09-21T06:11:53;8.40;99.90
9915;DHT22;4996;48.746;9.174;2022-09-21T06:14:18;8.50;99.90
9915;DHT22;4996;48.746;9.174;2022-09-21T06:16:49;8.50;99.90
9915;DHT22;4996;48.746;9.174;2022-09-21T06:19:14;8.70;99.90
9915;DHT22;4996;48.746;9.174;2022-09-21T06:21:40;8.80;99.90
9915;DHT22;4996;48.746;9.174;2022-09-21T06:24:06;9.00;99.90
9915;DHT22;4996;48.746;9.174;2022-09-21T06:26:31;9.00;99.90
9915;DHT22;4996;48.746;9.174;2022-09-21T06:28:57;9.00;99.90
9915;DHT22;4996;48.746;9.174;2022-09-21T06:31:22;9.10;99.90
9915;DHT22;4996;48.746;9.174;2022-09-21T06:33:48;9.30;99.90
9915;DHT22;4996;48.746;9.174;2022-09-21T06:36:14;9.30;99.90
9915;DHT22;4996;48.746;9.174;2022-09-21T06:38:40;9.40;99.90
9915;DHT22;4996;48.746;9.174;2022-09-21T06:41:05;9.60;99.90
9915;DHT22;4996;48.746;9.174;2022-09-21T06:43:31;9.70;99.90
9915;DHT22;4996;48.746;9.174;2022-09-21T06:45:59;9.70;99.90
9915;DHT22;4996;48.746;9.174;2022-09-21T06:48:25;9.70;99.90
9915;DHT22;4996;48.746;9.174;2022-09-21T06:50:58;9.90;99.90
9915;DHT22;4996;48.746;9.174;2022-09-21T06:53:25;9.90;99.90
9915;DHT22;4996;48.746;9.174;2022-09-21T06:55:51;10.00;99.90
9915;DHT22;4996;48.746;9.174;2022-09-21T06:58:17;10.00;99.90
9915;DHT22;4996;48.746;9.174;2022-09-21T07:00:42;10.10;99.90
9915;DHT22;4996;48.746;9.174;2022-09-21T07:03:10;10.00;99.90
9915;DHT22;4996;48.746;9.174;2022-09-21T07:05:36;10.20;99.90
9915;DHT22;4996;48.746;9.174;2022-09-21T07:08:02;10.30;99.90
9915;DHT22;4996;48.746;9.174;2022-09-21T07:10:27;10.40;99.90
9915;DHT22;4996;48.746;9.174;2022-09-21T07:12:53;10.50;99.90
9915;DHT22;4996;48.746;9.174;2022-09-21T07:15:19;10.60;99.90
9915;DHT22;4996;48.746;9.174;2022-09-21T07:17:45;10.70;99.90
9915;DHT22;4996;48.746;9.174;2022-09-21T07:20:11;10.90;99.90
9915;DHT22;4996;48.746;9.174;2022-09-21T07:22:37;11.00;99.90
9915;DHT22;4996;48.746;9.174;2022-09-21T07:25:04;11.20;99.90
9915;DHT22;4996;48.746;9.174;2022-09-21T07:27:31;11.40;99.90
9915;DHT22;4996;48.746;9.174;2022-09-21T07:29:57;11.70;99.90
9915;DHT22;4996;48.746;9.174;2022-09-21T07:32:23;12.00;99.90
9915;DHT22;4996;48.746;9.174;2022-09-21T07:34:50;12.00;99.90
9915;DHT22;4996;48.746;9.174;2022-09-21T07:37:20;12.10;99.90
9915;DHT22;4996;48.746;9.174;2022-09-21T07:39:45;12.30;99.90
9915;DHT22;4996;48.746;9.174;2022-09-21T07:42:11;12.20;99.90
9915;DHT22;4996;48.746;9.174;2022-09-21T07:44:36;12.20;99.90
9915;DHT22;4996;48.746;9.174;2022-09-21T07:47:02;12.10;99.90
9915;DHT22;4996;48.746;9.174;2022-09-21T07:49:27;12.30;99.90
9915;DHT22;4996;48.746;9.174;2022-09-21T07:51:53;12.30;99.90
9915;DHT22;4996;48.746;9.174;2022-09-21T07:54:18;12.40;99.90
9915;DHT22;4996;48.746;9.174;2022-09-21T07:56:44;12.50;99.90
9915;DHT22;4996;48.746;9.174;2022-09-21T07:59:29;12.70;99.90
9915;DHT22;4996;48.746;9.174;2022-09-21T08:01:57;13.10;99.90
9915;DHT22;4996;48.746;9.174;2022-09-21T08:04:23;13.30;99.90
9915;DHT22;4996;48.746;9.174;2022-09-21T08:06:48;13.40;99.90
9915;DHT22;4996;48.746;9.174;2022-09-21T08:09:14;13.60;99.90
9915;DHT22;4996;48.746;9.174;2022-09-21T08:11:40;13.50;99.90
9915;DHT22;4996;48.746;9.174;2022-09-21T08:14:08;13.70;99.90
9915;DHT22;4996;48.746;9.174;2022-09-21T08:16:34;14.20;99.90
9915;DHT22;4996;48.746;9.174;2022-09-21T08:19:03;14.30;99.90
9915;DHT22;4996;48.746;9.174;2022-09-21T08:21:29;14.40;99.90
9915;DHT22;4996;48.746;9.174;2022-09-21T08:23:54;14.50;99.90
9915;DHT22;4996;48.746;9.174;2022-09-21T08:26:20;14.70;99.90
9915;DHT22;4996;48.746;9.174;2022-09-21T08:28:51;15.10;99.90
9915;DHT22;4996;48.746;9.174;2022-09-21T08:31:20;15.30;99.90
9915;DHT22;4996;48.746;9.174;2022-09-21T08:33:46;15.50;99.90
9915;DHT22;4996;48.746;9.174;2022-09-21T08:36:12;15.70;99.90
9915;DHT22;4996;48.746;9.174;2022-09-21T08:38:38;15.70;99.90
9915;DHT22;4996;48.746;9.174;2022-09-21T08:43:42;16.10;99.90
9915;DHT22;4996;48.746;9.174;2022-09-21T08:46:20;16.10;99.90
9915;DHT22;4996;48.746;9.174;2022-09-21T08:48:59;16.10;99.90
9915;DHT22;4996;48.746;9.174;2022-09-21T08:51:29;16.20;99.90
9915;DHT22;4996;48.746;9.174;2022-09-21T08:53:59;16.30;99.90
9915;DHT22;4996;48.746;9.174;2022-09-21T08:56:27;16.70;99.90
9915;DHT22;4996;48.746;9.174;2022-09-21T08:58:53;17.00;99.90
9915;DHT22;4996;48.746;9.174;2022-09-21T09:09:49;16.70;99.90
9915;DHT22;4996;48.746;9.174;2022-09-21T09:18:10;16.10;99.90
9915;DHT22;4996;48.746;9.174;2022-09-21T09:20:46;16.50;99.90
9915;DHT22;4996;48.746;9.174;2022-09-21T09:23:21;16.90;99.90
9915;DHT22;4996;48.746;9.174;2022-09-21T09:25:50;17.30;99.90
9915;DHT22;4996;48.746;9.174;2022-09-21T09:28:34;17.30;99.90
9915;DHT22;4996;48.746;9.174;2022-09-21T09:31:15;17.60;99.90
9915;DHT22;4996;48.746;9.174;2022-09-21T09:33:51;17.90;99.90
9915;DHT22;4996;48.746;9.174;2022-09-21T09:36:18;17.80;99.90
9915;DHT22;4996;48.746;9.174;2022-09-21T09:38:50;17.40;99.90
9915;DHT22;4996;48.746;9.174;2022-09-21T09:44:37;17.50;99.90
9915;DHT22;4996;48.746;9.174;2022-09-21T09:50:07;16.70;99.90
9915;DHT22;4996;48.746;9.174;2022-09-21T09:52:33;17.00;99.90
9915;DHT22;4996;48.746;9.174;2022-09-21T09:55:00;17.30;99.90
9915;DHT22;4996;48.746;9.174;2022-09-21T09:57:31;17.40;99.90
9915;DHT22;4996;48.746;9.174;2022-09-21T10:00:04;17.20;99.90
9915;DHT22;4996;48.746;9.174;2022-09-21T10:02:48;17.70;99.90
9915;DHT22;4996;48.746;9.174;2022-09-21T10:05:21;18.10;99.90
9915;DHT22;4996;48.746;9.174;2022-09-21T10:07:48;18.40;99.90
9915;DHT22;4996;48.746;9.174;2022-09-21T10:13:32;18.30;99.90
9915;DHT22;4996;48.746;9.174;2022-09-21T10:18:37;17.80;99.90
9915;DHT22;4996;48.746;9.174;2022-09-21T10:21:08;17.50;99.90
9915;DHT22;4996;48.746;9.174;2022-09-21T10:23:45;17.10;99.90
9915;DHT22;4996;48.746;9.174;2022-09-21T10:26:12;17.30;99.90
9915;DHT22;4996;48.746;9.174;2022-09-21T10:29:00;17.30;99.90
9915;DHT22;4996;48.746;9.174;2022-09-21T10:31:28;17.60;99.90
9915;DHT22;4996;48.746;9.174;2022-09-21T10:34:04;17.90;99.90
9915;DHT22;4996;48.746;9.174;2022-09-21T10:36:33;17.80;99.90
9915;DHT22;4996;48.746;9.174;2022-09-21T10:39:24;17.50;99.90
9915;DHT22;4996;48.746;9.174;2022-09-21T10:41:52;17.50;99.90
9915;DHT22;4996;48.746;9.174;2022-09-21T10:44:21;17.80;99.90
9915;DHT22;4996;48.746;9.174;2022-09-21T10:46:48;17.90;99.90
9915;DHT22;4996;48.746;9.174;2022-09-21T10:49:23;18.10;99.90
9915;DHT22;4996;48.746;9.174;2022-09-21T10:51:52;18.30;99.90
9915;DHT22;4996;48.746;9.174;2022-09-21T10:54:26;18.60;99.90
9915;DHT22;4996;48.746;9.174;2022-09-21T10:56:58;19.00;99.90
9915;DHT22;4996;48.746;9.174;2022-09-21T10:59:30;19.30;99.90
9915;DHT22;4996;48.746;9.174;2022-09-21T11:01:57;19.80;99.90
9915;DHT22;4996;48.746;9.174;2022-09-21T11:04:31;19.90;99.90
9915;DHT22;4996;48.746;9.174;2022-09-21T11:07:24;20.10;99.00
9915;DHT22;4996;48.746;9.174;2022-09-21T11:10:00;21.40;98.50
9915;DHT22;4996;48.746;9.174;2022-09-21T11:15:17;21.80;93.90
9915;DHT22;4996;48.746;9.174;2022-09-21T11:18:20;21.60;95.40
9915;DHT22;4996;48.746;9.174;2022-09-21T11:20:54;22.90;93.00
9915;DHT22;4996;48.746;9.174;2022-09-21T11:29:02;23.90;85.50
9915;DHT22;4996;48.746;9.174;2022-09-21T11:31:42;23.90;82.80
9915;DHT22;4996;48.746;9.174;2022-09-21T11:34:27;23.00;84.60
9915;DHT22;4996;48.746;9.174;2022-09-21T11:37:08;24.40;82.30
9915;DHT22;4996;48.746;9.174;2022-09-21T11:39:39;23.70;83.30
9915;DHT22;4996;48.746;9.174;2022-09-21T11:45:16;24.10;81.50
9915;DHT22;4996;48.746;9.174;2022-09-21T11:47:57;24.10;82.20
9915;DHT22;4996;48.746;9.174;2022-09-21T11:53:06;25.50;77.70
9915;DHT22;4996;48.746;9.174;2022-09-21T11:56:06;24.80;80.20
9915;DHT22;4996;48.746;9.174;2022-09-21T11:59:02;25.00;79.50
9915;DHT22;4996;48.746;9.174;2022-09-21T12:01:50;23.60;80.30
9915;DHT22;4996;48.746;9.174;2022-09-21T12:12:35;23.30;81.60
9915;DHT22;4996;48.746;9.174;2022-09-21T12:17:45;24.40;78.60
9915;DHT22;4996;48.746;9.174;2022-09-21T12:21:07;23.80;76.40
9915;DHT22;4996;48.746;9.174;2022-09-21T12:23:43;23.20;76.80
9915;DHT22;4996;48.746;9.174;2022-09-21T12:26:13;22.30;77.40
9915;DHT22;4996;48.746;9.174;2022-09-21T12:28:47;21.60;78.60
9915;DHT22;4996;48.746;9.174;2022-09-21T12:31:22;20.70;79.40
9915;DHT22;4996;48.746;9.174;2022-09-21T12:33:52;20.30;81.70
9915;DHT22;4996;48.746;9.174;2022-09-21T12:36:42;20.10;82.40
9915;DHT22;4996;48.746;9.174;2022-09-21T12:41:58;19.60;81.40
9915;DHT22;4996;48.746;9.174;2022-09-21T12:44:45;18.90;83.00
9915;DHT22;4996;48.746;9.174;2022-09-21T12:47:45;18.80;84.10
9915;DHT22;4996;48.746;9.174;2022-09-21T12:50:39;18.50;84.20
9915;DHT22;4996;48.746;9.174;2022-09-21T12:53:13;18.10;86.60
9915;DHT22;4996;48.746;9.174;2022-09-21T12:55:51;18.10;86.00
9915;DHT22;4996;48.746;9.174;2022-09-21T13:04:43;17.70;87.10
9915;DHT22;4996;48.746;9.174;2022-09-21T13:07:38;17.80;87.10
9915;DHT22;4996;48.746;9.174;2022-09-21T13:10:16;17.80;88.20
9915;DHT22;4996;48.746;9.174;2022-09-21T13:12:45;18.20;86.90
9915;DHT22;4996;48.746;9.174;2022-09-21T13:15:23;17.90;85.70
9915;DHT22;4996;48.746;9.174;2022-09-21T13:18:21;17.00;86.00
9915;DHT22;4996;48.746;9.174;2022-09-21T13:20:46;17.10;89.20
9915;DHT22;4996;48.746;9.174;2022-09-21T13:23:19;17.20;87.50
9915;DHT22;4996;48.746;9.174;2022-09-21T13:25:48;17.20;87.40
9915;DHT22;4996;48.746;9.174;2022-09-21T13:30:49;17.60;88.50
9915;DHT22;4996;48.746;9.174;2022-09-21T13:33:38;17.70;88.90
9915;DHT22;4996;48.746;9.174;2022-09-21T13:36:28;17.60;88.20
9915;DHT22;4996;48.746;9.174;2022-09-21T13:39:14;17.60;89.10
9915;DHT22;4996;48.746;9.174;2022-09-21T13:41:41;17.50;89.70
9915;DHT22;4996;48.746;9.174;2022-09-21T13:44:41;17.60;90.10
9915;DHT22;4996;48.746;9.174;2022-09-21T13:47:07;17.50;89.90
9915;DHT22;4996;48.746;9.174;2022-09-21T13:49:41;17.40;90.20
9915;DHT22;4996;48.746;9.174;2022-09-21T13:54:37;17.00;90.60
9915;DHT22;4996;48.746;9.174;2022-09-21T13:57:34;17.10;90.90
9915;DHT22;4996;48.746;9.174;2022-09-21T14:02:35;17.20;90.90
9915;DHT22;4996;48.746;9.174;2022-09-21T14:05:42;17.20;91.20
9915;DHT22;4996;48.746;9.174;2022-09-21T14:11:00;17.20;91.40
9915;DHT22;4996;48.746;9.174;2022-09-21T14:13:33;17.40;90.70
9915;DHT22;4996;48.746;9.174;2022-09-21T14:18:54;17.40;89.60
9915;DHT22;4996;48.746;9.174;2022-09-21T14:21:20;17.40;88.60
9915;DHT22;4996;48.746;9.174;2022-09-21T14:29:28;17.10;89.20
9915;DHT22;4996;48.746;9.174;2022-09-21T14:31:58;17.10;90.10
9915;DHT22;4996;48.746;9.174;2022-09-21T14:34:30;17.10;89.70
9915;DHT22;4996;48.746;9.174;2022-09-21T14:36:58;17.10;89.50
9915;DHT22;4996;48.746;9.174;2022-09-21T14:39:44;17.20;89.40
9915;DHT22;4996;48.746;9.174;2022-09-21T14:42:16;17.40;90.20
9915;DHT22;4996;48.746;9.174;2022-09-21T14:44:43;17.20;90.30
9915;DHT22;4996;48.746;9.174;2022-09-21T14:56:10;17.00;89.90
9915;DHT22;4996;48.746;9.174;2022-09-21T14:58:54;17.00;89.70
9915;DHT22;4996;48.746;9.174;2022-09-21T15:04:12;17.10;90.30
9915;DHT22;4996;48.746;9.174;2022-09-21T15:16:12;16.80;90.50
9915;DHT22;4996;48.746;9.174;2022-09-21T15:18:45;16.90;90.70
9915;DHT22;4996;48.746;9.174;2022-09-21T15:21:28;16.80;88.60
9915;DHT22;4996;48.746;9.174;2022-09-21T15:23:55;16.70;87.90
9915;DHT22;4996;48.746;9.174;2022-09-21T15:26:32;16.70;87.00
9915;DHT22;4996;48.746;9.174;2022-09-21T15:29:00;16.50;87.10
9915;DHT22;4996;48.746;9.174;2022-09-21T15:31:31;16.70;88.80
9915;DHT22;4996;48.746;9.174;2022-09-21T15:33:58;16.80;87.90
9915;DHT22;4996;48.746;9.174;2022-09-21T15:36:26;16.80;87.90
9915;DHT22;4996;48.746;9.174;2022-09-21T15:38:54;16.70;88.80
9915;DHT22;4996;48.746;9.174;2022-09-21T15:41:45;16.80;90.00
9915;DHT22;4996;48.746;9.174;2022-09-21T15:46:42;16.70;88.80
9915;DHT22;4996;48.746;9.174;2022-09-21T15:49:15;16.60;88.60
9915;DHT22;4996;48.746;9.174;2022-09-21T15:51:49;16.60;88.40
9915;DHT22;4996;48.746;9.174;2022-09-21T15:54:33;16.70;88.50
9915;DHT22;4996;48.746;9.174;2022-09-21T15:57:04;16.50;88.70
9915;DHT22;4996;48.746;9.174;2022-09-21T15:59:32;16.50;88.20
9915;DHT22;4996;48.746;9.174;2022-09-21T16:02:00;16.60;88.00
9915;DHT22;4996;48.746;9.174;2022-09-21T16:04:34;16.60;87.10
9915;DHT22;4996;48.746;9.174;2022-09-21T16:07:24;16.70;87.50
9915;DHT22;4996;48.746;9.174;2022-09-21T16:09:50;16.60;88.10
9915;DHT22;4996;48.746;9.174;2022-09-21T16:14:53;16.40;87.60
9915;DHT22;4996;48.746;9.174;2022-09-21T16:17:24;16.20;88.20
9915;DHT22;4996;48.746;9.174;2022-09-21T16:22:26;16.10;89.00
9915;DHT22;4996;48.746;9.174;2022-09-21T16:24:56;16.20;89.40
9915;DHT22;4996;48.746;9.174;2022-09-21T16:27:25;16.10;89.10
9915;DHT22;4996;48.746;9.174;2022-09-21T16:29:52;16.00;88.60
9915;DHT22;4996;48.746;9.174;2022-09-21T16:34:48;15.90;89.00
9915;DHT22;4996;48.746;9.174;2022-09-21T16:37:27;16.00;88.90
9915;DHT22;4996;48.746;9.174;2022-09-21T16:39:58;15.80;88.90
9915;DHT22;4996;48.746;9.174;2022-09-21T16:42:27;16.00;90.00
9915;DHT22;4996;48.746;9.174;2022-09-21T16:44:57;15.90;89.90
9915;DHT22;4996;48.746;9.174;2022-09-21T16:47:25;16.00;90.20
9915;DHT22;4996;48.746;9.174;2022-09-21T16:49:52;15.90;90.00
9915;DHT22;4996;48.746;9.174;2022-09-21T16:52:25;15.90;90.40
9915;DHT22;4996;48.746;9.174;2022-09-21T16:54:53;15.90;90.30
9915;DHT22;4996;48.746;9.174;2022-09-21T16:57:24;16.00;90.60
9915;DHT22;4996;48.746;9.174;2022-09-21T16:59:50;16.00;90.90
9915;DHT22;4996;48.746;9.174;2022-09-21T17:02:16;15.80;91.10
9915;DHT22;4996;48.746;9.174;2022-09-21T17:04:42;15.80;91.20
9915;DHT22;4996;48.746;9.174;2022-09-21T17:07:10;15.80;91.00
9915;DHT22;4996;48.746;9.174;2022-09-21T17:09:39;15.80;91.20
9915;DHT22;4996;48.746;9.174;2022-09-21T17:12:08;15.60;91.90
9915;DHT22;4996;48.746;9.174;2022-09-21T17:14:36;15.40;91.50
9915;DHT22;4996;48.746;9.174;2022-09-21T17:17:22;15.40;92.50
9915;DHT22;4996;48.746;9.174;2022-09-21T17:19:50;15.30;91.80
9915;DHT22;4996;48.746;9.174;2022-09-21T17:22:17;15.30;92.40
9915;DHT22;4996;48.746;9.174;2022-09-21T17:24:43;15.30;92.20
9915;DHT22;4996;48.746;9.174;2022-09-21T17:27:10;15.30;92.50
9915;DHT22;4996;48.746;9.174;2022-09-21T17:29:37;15.30;92.70
9915;DHT22;4996;48.746;9.174;2022-09-21T17:32:08;15.20;93.20
9915;DHT22;4996;48.746;9.174;2022-09-21T17:34:35;15.10;93.30
9915;DHT22;4996;48.746;9.174;2022-09-21T17:37:00;15.10;93.20
9915;DHT22;4996;48.746;9.174;2022-09-21T17:39:26;15.00;93.80
9915;DHT22;4996;48.746;9.174;2022-09-21T17:42:02;15.00;94.10
9915;DHT22;4996;48.746;9.174;2022-09-21T17:47:22;14.90;94.60
9915;DHT22;4996;48.746;9.174;2022-09-21T17:49:50;14.70;94.80
9915;DHT22;4996;48.746;9.174;2022-09-21T17:52:18;14.70;95.20
9915;DHT22;4996;48.746;9.174;2022-09-21T17:55:04;14.60;95.70
9915;DHT22;4996;48.746;9.174;2022-09-21T18:03:43;14.20;97.30
9915;DHT22;4996;48.746;9.174;2022-09-21T18:06:10;14.20;97.90
9915;DHT22;4996;48.746;9.174;2022-09-21T18:08:37;14.10;98.40
9915;DHT22;4996;48.746;9.174;2022-09-21T18:11:34;14.00;98.60
9915;DHT22;4996;48.746;9.174;2022-09-21T18:23:17;13.70;99.90
9915;DHT22;4996;48.746;9.174;2022-09-21T18:25:44;13.60;99.90
9915;DHT22;4996;48.746;9.174;2022-09-21T18:28:21;13.50;99.90
9915;DHT22;4996;48.746;9.174;2022-09-21T18:33:37;13.40;99.90
9915;DHT22;4996;48.746;9.174;2022-09-21T18:36:11;13.30;99.90
9915;DHT22;4996;48.746;9.174;2022-09-21T18:39:09;13.20;99.90
9915;DHT22;4996;48.746;9.174;2022-09-21T18:42:05;13.20;99.90
9915;DHT22;4996;48.746;9.174;2022-09-21T18:45:04;13.20;99.90
9915;DHT22;4996;48.746;9.174;2022-09-21T18:48:02;13.10;99.90
9915;DHT22;4996;48.746;9.174;2022-09-21T18:50:34;13.10;99.90
9915;DHT22;4996;48.746;9.174;2022-09-21T18:55:40;13.10;99.90
9915;DHT22;4996;48.746;9.174;2022-09-21T18:58:07;13.10;99.90
9915;DHT22;4996;48.746;9.174;2022-09-21T19:00:34;13.00;99.90
9915;DHT22;4996;48.746;9.174;2022-09-21T19:03:10;13.00;99.90
9915;DHT22;4996;48.746;9.174;2022-09-21T19:05:38;13.00;99.90
9915;DHT22;4996;48.746;9.174;2022-09-21T19:08:17;13.00;99.90
9915;DHT22;4996;48.746;9.174;2022-09-21T19:10:52;13.00;99.90
9915;DHT22;4996;48.746;9.174;2022-09-21T19:13:49;12.90;99.90
9915;DHT22;4996;48.746;9.174;2022-09-21T19:16:30;12.90;99.90
9915;DHT22;4996;48.746;9.174;2022-09-21T19:19:21;12.90;99.90
9915;DHT22;4996;48.746;9.174;2022-09-21T19:22:18;12.80;99.90
9915;DHT22;4996;48.746;9.174;2022-09-21T19:24:53;12.70;99.90
9915;DHT22;4996;48.746;9.174;2022-09-21T19:27:45;12.70;99.90
9915;DHT22;4996;48.746;9.174;2022-09-21T19:30:14;12.50;99.90